Mount Pleasant Municipal Airport

About
Name: Mount Pleasant Municipal Airport
Identifier:  MPZ/KMPZ
Local Time:  22. Aug 10:22 CDT
Location
Mount Pleasant
  United States

Flights per Day
0 flights
Distance: 785km (487mi)
Punctuality
0% (0 flights per day delayed)
Delay Average: 12 minutes
Current Weather
 22 C (Humidity: 73%)
  5kt (9km/h / 5mph) from 40°
  16km (10 mi.)
 
 METAR KMPZ 221455Z AUTO 04005KT 10SM CLR 22/17 A3005 RMK AO2

Current Flights

Departures
Number Departure To Airline
Arrivals
Number Arrival From Airline

Current Delays

Departures
N/A
Arrivals
N/A

Destinations

Top Destinations
Airport Flights
per week
Seats
per week
  Fargo (FAR) 0 - 0 0
  York (THV) 0 - 0 0
  Des Moines (DSM) 0 - 0 0

Airlines & Planes

Top Airlines
Airline Flights
per Day
Seats
per Day
  Flybe Nordic 0 -
Jet Charter Inc ( Franklin Lakes Nj ) 0 -
Top Plane Types
Model Flights Seats